createdAt,value
2022-07-29T00:04:18.720Z,1.40
2022-07-29T00:09:20.527Z,1.20
2022-07-29T00:14:22.035Z,1.20
2022-07-29T00:19:23.555Z,1.30
2022-07-29T00:24:25.084Z,1.10
2022-07-29T00:29:34.942Z,1.15
2022-07-29T00:34:55.346Z,1.67
2022-07-29T00:39:56.855Z,1.30
2022-07-29T00:44:58.370Z,1.38
2022-07-29T00:49:59.895Z,1.42
2022-07-29T00:55:06.314Z,1.30
2022-07-29T01:05:15.768Z,1.65
2022-07-29T01:10:17.614Z,1.58
2022-07-29T01:15:19.190Z,1.60
2022-07-29T01:20:32.723Z,1.27
2022-07-29T01:25:47.974Z,1.30
2022-07-29T01:30:54.885Z,1.30
2022-07-29T01:35:58.899Z,1.52
2022-07-29T01:41:04.935Z,1.85
2022-07-29T01:46:09.526Z,1.50
2022-07-29T01:51:17.979Z,1.30
2022-07-29T01:56:19.740Z,1.40
2022-07-29T02:01:21.346Z,1.55
2022-07-29T02:06:23.365Z,1.42
2022-07-29T02:11:25.087Z,1.45
2022-07-29T02:16:26.674Z,1.25
2022-07-29T02:21:29.004Z,1.30
2022-07-29T02:31:34.691Z,1.20
2022-07-29T02:36:36.364Z,1.40
2022-07-29T02:41:51.867Z,1.33
2022-07-29T02:47:16.860Z,1.90
2022-07-29T02:52:32.974Z,1.50
2022-07-29T02:57:54.534Z,1.10
2022-07-29T03:02:59.632Z,1.50
2022-07-29T03:08:05.507Z,1.60
2022-07-29T03:13:07.343Z,1.58
2022-07-29T03:18:09.409Z,1.73
2022-07-29T03:23:10.929Z,1.45
2022-07-29T03:28:12.452Z,1.70
2022-07-29T03:33:13.965Z,1.70
2022-07-29T03:38:15.476Z,1.65
2022-07-29T03:43:17.749Z,1.83
2022-07-29T03:48:21.124Z,1.80
2022-07-29T03:53:22.634Z,1.50
2022-07-29T03:58:24.277Z,2.03
2022-07-29T04:03:25.879Z,1.63
2022-07-29T04:08:27.477Z,2.10
2022-07-29T04:13:28.999Z,1.10
2022-07-29T04:18:30.519Z,1.50
2022-07-29T04:23:34.860Z,1.50
2022-07-29T04:28:36.467Z,1.30
2022-07-29T04:33:37.966Z,1.80
2022-07-29T04:38:39.896Z,1.65
2022-07-29T04:43:41.409Z,1.55
2022-07-29T04:48:43.372Z,1.60
2022-07-29T04:53:44.945Z,1.80
2022-07-29T04:58:46.713Z,2.00
2022-07-29T05:03:48.245Z,1.50
2022-07-29T05:08:49.777Z,1.33
2022-07-29T05:13:51.297Z,1.70
2022-07-29T05:18:52.888Z,1.63
2022-07-29T05:23:54.393Z,1.30
2022-07-29T05:28:55.973Z,1.50
2022-07-29T05:33:57.498Z,1.65
2022-07-29T05:38:59.031Z,1.25
2022-07-29T05:44:00.610Z,1.52
2022-07-29T05:49:03.768Z,1.77
2022-07-29T05:54:05.391Z,1.27
2022-07-29T05:59:06.980Z,1.75
2022-07-29T06:04:20.502Z,1.55
2022-07-29T06:09:23.973Z,1.38
2022-07-29T06:14:26.082Z,1.50
2022-07-29T06:24:29.012Z,1.42
2022-07-29T06:29:30.556Z,1.63
2022-07-29T06:34:32.070Z,1.60
2022-07-29T06:39:37.673Z,1.60
2022-07-29T06:44:39.229Z,1.42
2022-07-29T06:49:40.778Z,1.60
2022-07-29T06:54:48.857Z,1.60
2022-07-29T06:59:50.379Z,1.75
2022-07-29T07:04:51.900Z,1.45
2022-07-29T07:09:53.416Z,1.60
2022-07-29T07:14:54.929Z,1.45
2022-07-29T07:19:56.481Z,1.23
2022-07-29T07:24:58.019Z,1.67
2022-07-29T07:29:59.548Z,1.35
2022-07-29T07:35:01.090Z,1.90
2022-07-29T07:40:02.778Z,1.85
2022-07-29T07:45:13.571Z,1.90
2022-07-29T07:50:18.999Z,1.80
2022-07-29T07:55:21.103Z,1.85
2022-07-29T08:00:22.987Z,1.55
2022-07-29T08:05:25.084Z,1.83
2022-07-29T08:10:45.168Z,1.60
2022-07-29T08:15:46.988Z,1.88
2022-07-29T08:20:48.505Z,2.08
2022-07-29T08:25:50.704Z,1.77
2022-07-29T08:30:52.249Z,2.13
2022-07-29T08:35:53.773Z,1.77
2022-07-29T08:40:55.295Z,1.50
2022-07-29T08:45:56.890Z,1.88
2022-07-29T08:50:58.488Z,1.67
2022-07-29T08:56:01.324Z,1.80
2022-07-29T09:01:03.217Z,1.80
2022-07-29T09:06:04.950Z,1.60
2022-07-29T09:16:09.857Z,1.67
2022-07-29T09:21:31.663Z,1.73
2022-07-29T09:26:34.203Z,1.80
2022-07-29T09:31:37.604Z,1.90
2022-07-29T09:36:43.370Z,2.05
2022-07-29T09:41:53.868Z,2.28
2022-07-29T09:47:10.623Z,1.50
2022-07-29T09:52:12.613Z,1.88
2022-07-29T09:57:30.924Z,1.80
2022-07-29T10:02:34.230Z,1.88
2022-07-29T10:07:53.867Z,1.70
2022-07-29T10:13:03.043Z,2.25
2022-07-29T10:18:08.882Z,2.35
2022-07-29T10:23:10.431Z,2.05
2022-07-29T10:28:15.987Z,2.08
2022-07-29T10:33:52.523Z,2.00
2022-07-29T10:39:03.291Z,2.38
2022-07-29T10:44:17.372Z,2.03
2022-07-29T10:49:27.069Z,2.00
2022-07-29T10:54:38.023Z,2.50
2022-07-29T10:59:53.135Z,2.50
2022-07-29T11:04:55.016Z,2.47
2022-07-29T11:10:16.437Z,1.83
2022-07-29T11:15:20.086Z,2.08
2022-07-29T11:20:38.293Z,2.33
2022-07-29T11:31:01.306Z,3.00
2022-07-29T11:36:16.892Z,2.33
2022-07-29T11:41:19.008Z,2.42
2022-07-29T11:46:45.359Z,2.15
2022-07-29T11:51:54.970Z,2.40
2022-07-29T11:56:58.743Z,1.98
2022-07-29T12:02:18.412Z,2.88
2022-07-29T12:07:48.537Z,2.33
2022-07-29T12:12:53.809Z,2.10
2022-07-29T12:17:55.334Z,2.28
2022-07-29T12:28:02.056Z,2.30
2022-07-29T12:33:03.622Z,2.25
2022-07-29T12:38:05.324Z,2.13
2022-07-29T12:43:11.594Z,2.78
2022-07-29T12:48:13.278Z,2.42
2022-07-29T12:53:14.856Z,2.50
2022-07-29T12:58:29.369Z,2.47
2022-07-29T13:03:57.549Z,2.80
2022-07-29T13:09:11.559Z,2.85
2022-07-29T13:14:15.335Z,2.30
2022-07-29T13:19:16.983Z,2.75
2022-07-29T13:24:19.977Z,2.40
2022-07-29T13:29:21.634Z,3.50
2022-07-29T13:34:25.299Z,3.03
2022-07-29T13:39:26.844Z,2.20
2022-07-29T13:44:28.376Z,2.60
2022-07-29T13:49:29.906Z,2.67
2022-07-29T13:54:31.463Z,2.33
2022-07-29T13:59:32.988Z,2.03
2022-07-29T14:04:34.587Z,2.13
2022-07-29T14:09:40.934Z,1.98
2022-07-29T14:14:44.261Z,2.22
2022-07-29T14:19:48.836Z,2.30
2022-07-29T14:24:50.352Z,1.90
2022-07-29T14:29:51.893Z,2.25
2022-07-29T14:34:53.403Z,2.40
2022-07-29T14:39:55.501Z,2.05
2022-07-29T14:44:57.172Z,1.98
2022-07-29T14:49:58.683Z,2.47
2022-07-29T14:55:00.490Z,2.20
2022-07-29T15:00:02.572Z,2.65
2022-07-29T15:05:04.395Z,2.28
2022-07-29T15:10:06.278Z,2.30
2022-07-29T15:15:09.970Z,2.00
2022-07-29T15:20:12.687Z,1.90
2022-07-29T15:25:14.206Z,2.17
2022-07-29T15:30:32.735Z,2.35
2022-07-29T15:35:40.323Z,2.45
2022-07-29T15:40:44.160Z,2.35
2022-07-29T15:46:05.803Z,2.45
2022-07-29T15:51:07.437Z,2.35
2022-07-29T15:56:09.126Z,2.60
2022-07-29T16:01:11.374Z,2.08
2022-07-29T16:06:13.303Z,2.25
2022-07-29T16:11:14.928Z,2.47
2022-07-29T16:16:18.234Z,2.15
2022-07-29T16:21:19.769Z,1.98
2022-07-29T16:26:21.464Z,2.10
2022-07-29T16:31:23.252Z,2.33
2022-07-29T16:36:24.903Z,2.55
2022-07-29T16:41:26.451Z,2.45
2022-07-29T16:51:30.132Z,2.33
2022-07-29T16:56:31.645Z,2.50
2022-07-29T17:06:35.615Z,2.95
2022-07-29T17:11:53.764Z,2.30
2022-07-29T17:17:00.096Z,2.10
2022-07-29T17:22:18.644Z,2.13
2022-07-29T17:27:20.876Z,2.15
2022-07-29T17:37:23.853Z,1.90
2022-07-29T17:42:25.363Z,2.63
2022-07-29T17:47:26.865Z,2.33
2022-07-29T17:52:28.384Z,2.38
2022-07-29T17:57:29.982Z,2.00
2022-07-29T18:07:33.753Z,2.40
2022-07-29T18:12:35.302Z,2.30
2022-07-29T18:17:53.836Z,2.33
2022-07-29T18:22:58.412Z,2.33
2022-07-29T18:28:01.236Z,2.50
2022-07-29T18:33:20.677Z,2.35
2022-07-29T18:38:23.169Z,2.22
2022-07-29T18:43:24.691Z,2.78
2022-07-29T18:48:26.202Z,2.38
2022-07-29T18:53:27.779Z,2.72
2022-07-29T18:58:29.471Z,2.20
2022-07-29T19:08:32.396Z,2.60
2022-07-29T19:13:33.928Z,2.35
2022-07-29T19:18:35.544Z,2.53
2022-07-29T19:24:00.660Z,2.53
2022-07-29T19:28:58.606Z,2.55
2022-07-29T19:34:00.152Z,2.10
2022-07-29T19:39:01.760Z,2.33
2022-07-29T19:44:03.677Z,2.17
2022-07-29T19:49:08.098Z,2.00
2022-07-29T19:54:09.658Z,2.50
2022-07-29T19:59:11.289Z,2.17
2022-07-29T20:04:13.902Z,1.83
2022-07-29T20:09:20.442Z,2.42
2022-07-29T20:14:22.707Z,2.45
2022-07-29T20:19:24.229Z,2.03
2022-07-29T20:24:25.896Z,2.03
2022-07-29T20:29:27.730Z,2.15
2022-07-29T20:34:30.325Z,2.00
2022-07-29T20:39:31.860Z,2.50
2022-07-29T20:44:33.462Z,2.30
2022-07-29T20:49:36.330Z,1.85
2022-07-29T20:54:37.872Z,2.13
2022-07-29T20:59:42.768Z,1.70
2022-07-29T21:04:47.154Z,1.92
2022-07-29T21:09:48.661Z,2.22
2022-07-29T21:14:50.282Z,2.28
2022-07-29T21:19:53.233Z,2.33
2022-07-29T21:24:54.779Z,2.50
2022-07-29T21:29:56.317Z,1.92
2022-07-29T21:35:00.772Z,1.90
2022-07-29T21:45:04.545Z,2.13
2022-07-29T21:50:06.349Z,1.85
2022-07-29T22:00:15.650Z,2.33
2022-07-29T22:05:17.163Z,2.40
2022-07-29T22:10:18.703Z,2.45
2022-07-29T22:15:20.218Z,1.77
2022-07-29T22:20:22.736Z,2.20
2022-07-29T22:25:24.255Z,2.05
2022-07-29T22:30:25.860Z,1.75
2022-07-29T22:35:27.431Z,2.10
2022-07-29T22:40:30.741Z,2.00
2022-07-29T22:45:34.260Z,2.30
2022-07-29T22:50:35.788Z,1.85
2022-07-29T22:55:37.338Z,2.17
2022-07-29T23:00:38.962Z,2.20
2022-07-29T23:05:40.472Z,2.50
2022-07-29T23:10:42.000Z,3.15
2022-07-29T23:15:43.547Z,2.47
2022-07-29T23:20:45.417Z,2.20
2022-07-29T23:25:47.075Z,2.00
2022-07-29T23:30:48.699Z,2.60
2022-07-29T23:35:50.306Z,2.40
2022-07-29T23:40:51.851Z,2.90
2022-07-29T23:45:53.709Z,3.85
2022-07-29T23:50:55.382Z,3.85
2022-07-29T23:55:57.002Z,3.97
